sensor_id;sensor_type;location;lat;lon;timestamp;P1;durP1;ratioP1;P2;durP2;ratioP2
9409;SDS011;4744;52.576;13.568;2023-05-10T00:02:00;4.20;;;3.42;;
9409;SDS011;4744;52.576;13.568;2023-05-10T00:04:27;4.22;;;3.60;;
9409;SDS011;4744;52.576;13.568;2023-05-10T00:06:54;5.10;;;3.78;;
9409;SDS011;4744;52.576;13.568;2023-05-10T00:09:21;4.28;;;3.72;;
9409;SDS011;4744;52.576;13.568;2023-05-10T00:11:49;3.90;;;3.60;;
9409;SDS011;4744;52.576;13.568;2023-05-10T00:14:16;5.18;;;3.95;;
9409;SDS011;4744;52.576;13.568;2023-05-10T00:16:43;4.25;;;3.85;;
9409;SDS011;4744;52.576;13.568;2023-05-10T00:19:10;4.45;;;3.53;;
9409;SDS011;4744;52.576;13.568;2023-05-10T00:21:37;4.40;;;4.00;;
9409;SDS011;4744;52.576;13.568;2023-05-10T00:24:04;4.78;;;4.00;;
9409;SDS011;4744;52.576;13.568;2023-05-10T00:26:31;4.95;;;4.35;;
9409;SDS011;4744;52.576;13.568;2023-05-10T00:29:00;4.43;;;4.03;;
9409;SDS011;4744;52.576;13.568;2023-05-10T00:31:26;4.40;;;4.00;;
9409;SDS011;4744;52.576;13.568;2023-05-10T00:33:54;4.22;;;3.92;;
9409;SDS011;4744;52.576;13.568;2023-05-10T00:36:21;4.43;;;3.92;;
9409;SDS011;4744;52.576;13.568;2023-05-10T00:38:48;6.03;;;4.68;;
9409;SDS011;4744;52.576;13.568;2023-05-10T00:41:15;4.95;;;4.50;;
9409;SDS011;4744;52.576;13.568;2023-05-10T00:43:41;5.22;;;4.00;;
9409;SDS011;4744;52.576;13.568;2023-05-10T00:46:10;4.63;;;4.22;;
9409;SDS011;4744;52.576;13.568;2023-05-10T00:48:37;6.22;;;4.57;;
9409;SDS011;4744;52.576;13.568;2023-05-10T00:51:04;6.13;;;4.40;;
9409;SDS011;4744;52.576;13.568;2023-05-10T00:53:31;4.70;;;4.30;;
9409;SDS011;4744;52.576;13.568;2023-05-10T00:55:59;5.93;;;4.53;;
9409;SDS011;4744;52.576;13.568;2023-05-10T00:58:27;7.47;;;4.60;;
9409;SDS011;4744;52.576;13.568;2023-05-10T01:00:55;8.23;;;4.40;;
9409;SDS011;4744;52.576;13.568;2023-05-10T01:03:25;4.93;;;4.35;;
9409;SDS011;4744;52.576;13.568;2023-05-10T01:05:52;4.75;;;4.30;;
9409;SDS011;4744;52.576;13.568;2023-05-10T01:08:19;4.43;;;4.03;;
9409;SDS011;4744;52.576;13.568;2023-05-10T01:10:47;4.63;;;4.22;;
9409;SDS011;4744;52.576;13.568;2023-05-10T01:13:16;4.82;;;4.43;;
9409;SDS011;4744;52.576;13.568;2023-05-10T01:15:53;5.45;;;4.03;;
9409;SDS011;4744;52.576;13.568;2023-05-10T01:18:21;5.25;;;4.78;;
9409;SDS011;4744;52.576;13.568;2023-05-10T01:20:53;5.53;;;4.80;;
9409;SDS011;4744;52.576;13.568;2023-05-10T01:23:32;5.18;;;4.68;;
9409;SDS011;4744;52.576;13.568;2023-05-10T01:26:24;4.93;;;3.83;;
9409;SDS011;4744;52.576;13.568;2023-05-10T01:32:16;7.05;;;4.57;;
9409;SDS011;4744;52.576;13.568;2023-05-10T01:34:53;5.47;;;4.40;;
9409;SDS011;4744;52.576;13.568;2023-05-10T01:37:28;4.90;;;4.45;;
9409;SDS011;4744;52.576;13.568;2023-05-10T01:40:00;5.00;;;4.60;;
9409;SDS011;4744;52.576;13.568;2023-05-10T01:42:35;6.82;;;4.65;;
9409;SDS011;4744;52.576;13.568;2023-05-10T01:45:07;4.82;;;4.20;;
9409;SDS011;4744;52.576;13.568;2023-05-10T01:47:46;5.07;;;4.57;;
9409;SDS011;4744;52.576;13.568;2023-05-10T01:50:17;5.15;;;4.45;;
9409;SDS011;4744;52.576;13.568;2023-05-10T01:52:47;7.13;;;4.35;;
9409;SDS011;4744;52.576;13.568;2023-05-10T01:55:18;4.82;;;4.30;;
9409;SDS011;4744;52.576;13.568;2023-05-10T01:57:48;5.88;;;4.32;;
9409;SDS011;4744;52.576;13.568;2023-05-10T02:00:20;5.22;;;4.60;;
9409;SDS011;4744;52.576;13.568;2023-05-10T02:02:50;6.07;;;4.57;;
9409;SDS011;4744;52.576;13.568;2023-05-10T02:05:18;5.32;;;4.60;;
9409;SDS011;4744;52.576;13.568;2023-05-10T02:07:47;4.18;;;3.85;;
9409;SDS011;4744;52.576;13.568;2023-05-10T02:10:16;4.47;;;4.07;;
9409;SDS011;4744;52.576;13.568;2023-05-10T02:12:44;4.15;;;3.72;;
9409;SDS011;4744;52.576;13.568;2023-05-10T02:15:16;4.82;;;4.32;;
9409;SDS011;4744;52.576;13.568;2023-05-10T02:17:46;4.75;;;4.25;;
9409;SDS011;4744;52.576;13.568;2023-05-10T02:20:15;4.97;;;3.80;;
9409;SDS011;4744;52.576;13.568;2023-05-10T02:22:44;4.28;;;3.88;;
9409;SDS011;4744;52.576;13.568;2023-05-10T02:25:13;6.35;;;4.10;;
9409;SDS011;4744;52.576;13.568;2023-05-10T02:27:41;4.38;;;4.03;;
9409;SDS011;4744;52.576;13.568;2023-05-10T02:30:10;5.03;;;3.92;;
9409;SDS011;4744;52.576;13.568;2023-05-10T02:32:37;6.18;;;4.28;;
9409;SDS011;4744;52.576;13.568;2023-05-10T02:35:06;4.43;;;4.03;;
9409;SDS011;4744;52.576;13.568;2023-05-10T02:37:35;7.13;;;4.35;;
9409;SDS011;4744;52.576;13.568;2023-05-10T02:40:05;4.72;;;4.32;;
9409;SDS011;4744;52.576;13.568;2023-05-10T02:42:35;4.70;;;4.18;;
9409;SDS011;4744;52.576;13.568;2023-05-10T02:45:05;4.00;;;3.53;;
9409;SDS011;4744;52.576;13.568;2023-05-10T02:47:38;5.00;;;4.00;;
9409;SDS011;4744;52.576;13.568;2023-05-10T02:50:05;5.05;;;4.40;;
9409;SDS011;4744;52.576;13.568;2023-05-10T02:52:39;4.82;;;3.92;;
9409;SDS011;4744;52.576;13.568;2023-05-10T02:55:07;4.70;;;4.05;;
9409;SDS011;4744;52.576;13.568;2023-05-10T02:57:38;4.28;;;3.97;;
9409;SDS011;4744;52.576;13.568;2023-05-10T03:00:09;4.43;;;4.03;;
9409;SDS011;4744;52.576;13.568;2023-05-10T03:02:37;5.40;;;3.83;;
9409;SDS011;4744;52.576;13.568;2023-05-10T03:05:04;5.78;;;4.20;;
9409;SDS011;4744;52.576;13.568;2023-05-10T03:07:32;5.63;;;4.10;;
9409;SDS011;4744;52.576;13.568;2023-05-10T03:10:00;6.25;;;4.00;;
9409;SDS011;4744;52.576;13.568;2023-05-10T03:12:31;4.22;;;3.80;;
9409;SDS011;4744;52.576;13.568;2023-05-10T03:15:09;5.32;;;4.50;;
9409;SDS011;4744;52.576;13.568;2023-05-10T03:17:45;4.97;;;3.80;;
9409;SDS011;4744;52.576;13.568;2023-05-10T03:20:19;4.03;;;3.60;;
9409;SDS011;4744;52.576;13.568;2023-05-10T03:22:50;4.07;;;3.78;;
9409;SDS011;4744;52.576;13.568;2023-05-10T03:25:20;4.13;;;3.78;;
9409;SDS011;4744;52.576;13.568;2023-05-10T03:27:49;4.95;;;3.85;;
9409;SDS011;4744;52.576;13.568;2023-05-10T03:30:16;5.18;;;3.33;;
9409;SDS011;4744;52.576;13.568;2023-05-10T03:32:44;4.28;;;3.88;;
9409;SDS011;4744;52.576;13.568;2023-05-10T03:35:12;5.95;;;4.00;;
9409;SDS011;4744;52.576;13.568;2023-05-10T03:37:39;5.00;;;3.65;;
9409;SDS011;4744;52.576;13.568;2023-05-10T03:40:06;4.15;;;3.75;;
9409;SDS011;4744;52.576;13.568;2023-05-10T03:42:35;4.07;;;3.78;;
9409;SDS011;4744;52.576;13.568;2023-05-10T03:45:02;4.10;;;3.72;;
9409;SDS011;4744;52.576;13.568;2023-05-10T03:47:30;3.80;;;3.50;;
9409;SDS011;4744;52.576;13.568;2023-05-10T03:49:57;3.70;;;3.40;;
9409;SDS011;4744;52.576;13.568;2023-05-10T03:52:24;4.28;;;3.65;;
9409;SDS011;4744;52.576;13.568;2023-05-10T03:54:51;4.72;;;3.42;;
9409;SDS011;4744;52.576;13.568;2023-05-10T03:57:18;4.70;;;3.75;;
9409;SDS011;4744;52.576;13.568;2023-05-10T03:59:46;5.05;;;3.95;;
9409;SDS011;4744;52.576;13.568;2023-05-10T04:02:13;4.07;;;3.67;;
9409;SDS011;4744;52.576;13.568;2023-05-10T04:04:40;4.18;;;3.58;;
9409;SDS011;4744;52.576;13.568;2023-05-10T04:07:07;5.45;;;3.80;;
9409;SDS011;4744;52.576;13.568;2023-05-10T04:09:35;4.22;;;3.60;;
9409;SDS011;4744;52.576;13.568;2023-05-10T04:12:02;4.30;;;3.67;;
9409;SDS011;4744;52.576;13.568;2023-05-10T04:14:29;6.38;;;3.70;;
9409;SDS011;4744;52.576;13.568;2023-05-10T04:16:58;4.40;;;4.00;;
9409;SDS011;4744;52.576;13.568;2023-05-10T04:19:28;4.53;;;3.40;;
9409;SDS011;4744;52.576;13.568;2023-05-10T04:21:55;7.78;;;3.75;;
9409;SDS011;4744;52.576;13.568;2023-05-10T04:24:22;4.60;;;3.67;;
9409;SDS011;4744;52.576;13.568;2023-05-10T04:26:49;4.15;;;3.75;;
9409;SDS011;4744;52.576;13.568;2023-05-10T04:29:16;4.47;;;3.47;;
9409;SDS011;4744;52.576;13.568;2023-05-10T04:31:43;3.70;;;3.15;;
9409;SDS011;4744;52.576;13.568;2023-05-10T04:34:11;4.25;;;3.50;;
9409;SDS011;4744;52.576;13.568;2023-05-10T04:36:38;4.45;;;3.58;;
9409;SDS011;4744;52.576;13.568;2023-05-10T04:39:05;3.72;;;3.42;;
9409;SDS011;4744;52.576;13.568;2023-05-10T04:41:32;4.70;;;3.55;;
9409;SDS011;4744;52.576;13.568;2023-05-10T04:43:59;5.43;;;3.40;;
9409;SDS011;4744;52.576;13.568;2023-05-10T04:46:26;4.20;;;3.50;;
9409;SDS011;4744;52.576;13.568;2023-05-10T04:48:53;3.75;;;3.35;;
9409;SDS011;4744;52.576;13.568;2023-05-10T04:51:21;5.22;;;3.35;;
9409;SDS011;4744;52.576;13.568;2023-05-10T04:53:48;4.68;;;3.15;;
9409;SDS011;4744;52.576;13.568;2023-05-10T04:56:15;3.80;;;3.50;;
9409;SDS011;4744;52.576;13.568;2023-05-10T04:58:42;3.75;;;3.15;;
9409;SDS011;4744;52.576;13.568;2023-05-10T05:01:09;3.58;;;3.25;;
9409;SDS011;4744;52.576;13.568;2023-05-10T05:03:36;3.97;;;3.17;;
9409;SDS011;4744;52.576;13.568;2023-05-10T05:06:03;4.05;;;3.15;;
9409;SDS011;4744;52.576;13.568;2023-05-10T05:08:32;4.85;;;2.95;;
9409;SDS011;4744;52.576;13.568;2023-05-10T05:10:59;4.30;;;3.13;;
9409;SDS011;4744;52.576;13.568;2023-05-10T05:13:26;4.55;;;3.22;;
9409;SDS011;4744;52.576;13.568;2023-05-10T05:15:52;3.50;;;3.20;;
9409;SDS011;4744;52.576;13.568;2023-05-10T05:18:19;5.82;;;2.95;;
9409;SDS011;4744;52.576;13.568;2023-05-10T05:20:46;4.75;;;3.33;;
9409;SDS011;4744;52.576;13.568;2023-05-10T05:23:13;4.18;;;3.42;;
9409;SDS011;4744;52.576;13.568;2023-05-10T05:25:41;3.78;;;2.70;;
9409;SDS011;4744;52.576;13.568;2023-05-10T05:28:08;3.00;;;2.72;;
9409;SDS011;4744;52.576;13.568;2023-05-10T05:30:35;5.13;;;2.80;;
9409;SDS011;4744;52.576;13.568;2023-05-10T05:33:02;3.00;;;2.70;;
9409;SDS011;4744;52.576;13.568;2023-05-10T05:35:29;2.88;;;2.63;;
9409;SDS011;4744;52.576;13.568;2023-05-10T05:37:56;3.35;;;3.03;;
9409;SDS011;4744;52.576;13.568;2023-05-10T05:40:23;3.17;;;2.85;;
9409;SDS011;4744;52.576;13.568;2023-05-10T05:42:51;2.80;;;2.60;;
9409;SDS011;4744;52.576;13.568;2023-05-10T05:45:18;5.82;;;2.95;;
9409;SDS011;4744;52.576;13.568;2023-05-10T05:47:46;4.93;;;2.70;;
9409;SDS011;4744;52.576;13.568;2023-05-10T05:50:13;2.95;;;2.70;;
9409;SDS011;4744;52.576;13.568;2023-05-10T05:52:40;3.90;;;2.70;;
9409;SDS011;4744;52.576;13.568;2023-05-10T05:55:07;3.88;;;2.83;;
9409;SDS011;4744;52.576;13.568;2023-05-10T05:57:34;6.18;;;2.83;;
9409;SDS011;4744;52.576;13.568;2023-05-10T06:00:02;3.25;;;2.70;;
9409;SDS011;4744;52.576;13.568;2023-05-10T06:02:30;2.65;;;2.38;;
9409;SDS011;4744;52.576;13.568;2023-05-10T06:04:57;7.38;;;3.10;;
9409;SDS011;4744;52.576;13.568;2023-05-10T06:07:23;4.28;;;2.90;;
9409;SDS011;4744;52.576;13.568;2023-05-10T06:09:50;3.33;;;2.55;;
9409;SDS011;4744;52.576;13.568;2023-05-10T06:12:17;4.35;;;2.58;;
9409;SDS011;4744;52.576;13.568;2023-05-10T06:14:44;4.75;;;2.67;;
9409;SDS011;4744;52.576;13.568;2023-05-10T06:17:12;2.83;;;2.47;;
9409;SDS011;4744;52.576;13.568;2023-05-10T06:19:39;2.78;;;2.35;;
9409;SDS011;4744;52.576;13.568;2023-05-10T06:22:06;3.28;;;2.58;;
9409;SDS011;4744;52.576;13.568;2023-05-10T06:24:33;3.95;;;2.35;;
9409;SDS011;4744;52.576;13.568;2023-05-10T06:27:00;3.75;;;2.33;;
9409;SDS011;4744;52.576;13.568;2023-05-10T06:29:27;3.78;;;2.28;;
9409;SDS011;4744;52.576;13.568;2023-05-10T06:31:54;2.90;;;2.45;;
9409;SDS011;4744;52.576;13.568;2023-05-10T06:34:22;2.70;;;2.40;;
9409;SDS011;4744;52.576;13.568;2023-05-10T06:36:49;2.10;;;1.98;;
9409;SDS011;4744;52.576;13.568;2023-05-10T06:39:16;3.08;;;2.00;;
9409;SDS011;4744;52.576;13.568;2023-05-10T06:41:43;2.50;;;2.30;;
9409;SDS011;4744;52.576;13.568;2023-05-10T06:44:10;3.83;;;2.30;;
9409;SDS011;4744;52.576;13.568;2023-05-10T06:46:38;7.28;;;2.40;;
9409;SDS011;4744;52.576;13.568;2023-05-10T06:49:04;2.50;;;2.20;;
9409;SDS011;4744;52.576;13.568;2023-05-10T06:51:33;3.45;;;2.30;;
9409;SDS011;4744;52.576;13.568;2023-05-10T06:54:00;2.88;;;2.10;;
9409;SDS011;4744;52.576;13.568;2023-05-10T06:56:27;2.17;;;1.98;;
9409;SDS011;4744;52.576;13.568;2023-05-10T06:58:54;2.72;;;2.40;;
9409;SDS011;4744;52.576;13.568;2023-05-10T07:01:21;2.58;;;2.15;;
9409;SDS011;4744;52.576;13.568;2023-05-10T07:03:48;2.92;;;2.10;;
9409;SDS011;4744;52.576;13.568;2023-05-10T07:06:15;3.03;;;2.47;;
9409;SDS011;4744;52.576;13.568;2023-05-10T07:08:44;3.58;;;2.08;;
9409;SDS011;4744;52.576;13.568;2023-05-10T07:11:10;2.20;;;2.08;;
9409;SDS011;4744;52.576;13.568;2023-05-10T07:13:38;3.78;;;2.17;;
9409;SDS011;4744;52.576;13.568;2023-05-10T07:16:09;2.05;;;1.85;;
9409;SDS011;4744;52.576;13.568;2023-05-10T07:18:36;3.28;;;2.30;;
9409;SDS011;4744;52.576;13.568;2023-05-10T07:21:03;2.20;;;2.08;;
9409;SDS011;4744;52.576;13.568;2023-05-10T07:23:30;2.58;;;2.38;;
9409;SDS011;4744;52.576;13.568;2023-05-10T07:25:58;5.18;;;2.58;;
9409;SDS011;4744;52.576;13.568;2023-05-10T07:28:25;2.35;;;2.00;;
9409;SDS011;4744;52.576;13.568;2023-05-10T07:30:52;3.15;;;2.40;;
9409;SDS011;4744;52.576;13.568;2023-05-10T07:33:19;2.08;;;1.90;;
9409;SDS011;4744;52.576;13.568;2023-05-10T07:35:45;2.33;;;2.13;;
9409;SDS011;4744;52.576;13.568;2023-05-10T07:38:12;3.05;;;2.13;;
9409;SDS011;4744;52.576;13.568;2023-05-10T07:40:39;5.38;;;2.53;;
9409;SDS011;4744;52.576;13.568;2023-05-10T07:43:07;2.33;;;2.15;;
9409;SDS011;4744;52.576;13.568;2023-05-10T07:45:34;2.88;;;2.00;;
9409;SDS011;4744;52.576;13.568;2023-05-10T07:48:01;4.07;;;2.40;;
9409;SDS011;4744;52.576;13.568;2023-05-10T07:50:29;3.65;;;2.53;;
9409;SDS011;4744;52.576;13.568;2023-05-10T07:52:56;2.63;;;2.00;;
9409;SDS011;4744;52.576;13.568;2023-05-10T07:55:23;2.35;;;2.15;;
9409;SDS011;4744;52.576;13.568;2023-05-10T07:57:50;3.00;;;2.03;;
9409;SDS011;4744;52.576;13.568;2023-05-10T08:00:18;5.53;;;2.20;;
9409;SDS011;4744;52.576;13.568;2023-05-10T08:02:46;3.88;;;2.30;;
9409;SDS011;4744;52.576;13.568;2023-05-10T08:05:13;4.10;;;2.30;;
9409;SDS011;4744;52.576;13.568;2023-05-10T08:07:41;3.33;;;2.10;;
9409;SDS011;4744;52.576;13.568;2023-05-10T08:10:08;2.58;;;2.38;;
9409;SDS011;4744;52.576;13.568;2023-05-10T08:12:37;3.13;;;2.13;;
9409;SDS011;4744;52.576;13.568;2023-05-10T08:15:04;2.75;;;2.15;;
9409;SDS011;4744;52.576;13.568;2023-05-10T08:17:33;3.30;;;2.35;;
9409;SDS011;4744;52.576;13.568;2023-05-10T08:20:00;4.28;;;2.17;;
9409;SDS011;4744;52.576;13.568;2023-05-10T08:22:27;2.83;;;2.00;;
9409;SDS011;4744;52.576;13.568;2023-05-10T08:24:54;2.67;;;2.13;;
9409;SDS011;4744;52.576;13.568;2023-05-10T08:27:21;4.13;;;2.20;;
9409;SDS011;4744;52.576;13.568;2023-05-10T08:29:48;2.50;;;2.05;;
9409;SDS011;4744;52.576;13.568;2023-05-10T08:32:15;3.67;;;2.33;;
9409;SDS011;4744;52.576;13.568;2023-05-10T08:34:43;2.50;;;2.30;;
9409;SDS011;4744;52.576;13.568;2023-05-10T08:37:10;2.13;;;2.00;;
9409;SDS011;4744;52.576;13.568;2023-05-10T08:39:38;2.65;;;2.22;;
9409;SDS011;4744;52.576;13.568;2023-05-10T08:42:05;8.00;;;2.53;;
9409;SDS011;4744;52.576;13.568;2023-05-10T08:44:34;3.60;;;2.38;;
9409;SDS011;4744;52.576;13.568;2023-05-10T08:47:02;2.95;;;1.98;;
9409;SDS011;4744;52.576;13.568;2023-05-10T08:49:31;3.30;;;2.42;;
9409;SDS011;4744;52.576;13.568;2023-05-10T08:52:01;2.60;;;2.40;;
9409;SDS011;4744;52.576;13.568;2023-05-10T08:54:31;2.30;;;2.10;;
9409;SDS011;4744;52.576;13.568;2023-05-10T08:56:58;2.15;;;2.05;;
9409;SDS011;4744;52.576;13.568;2023-05-10T08:59:26;2.33;;;2.13;;
9409;SDS011;4744;52.576;13.568;2023-05-10T09:01:53;2.83;;;2.20;;
9409;SDS011;4744;52.576;13.568;2023-05-10T09:04:21;1.95;;;1.85;;
9409;SDS011;4744;52.576;13.568;2023-05-10T09:06:49;2.38;;;2.08;;
9409;SDS011;4744;52.576;13.568;2023-05-10T09:09:18;2.53;;;2.33;;
9409;SDS011;4744;52.576;13.568;2023-05-10T09:11:47;2.33;;;2.17;;
9409;SDS011;4744;52.576;13.568;2023-05-10T09:14:14;2.25;;;2.05;;
9409;SDS011;4744;52.576;13.568;2023-05-10T09:16:42;1.85;;;1.75;;
9409;SDS011;4744;52.576;13.568;2023-05-10T09:19:09;3.15;;;2.20;;
9409;SDS011;4744;52.576;13.568;2023-05-10T09:21:36;1.80;;;1.70;;
9409;SDS011;4744;52.576;13.568;2023-05-10T09:24:04;2.28;;;2.08;;
9409;SDS011;4744;52.576;13.568;2023-05-10T09:26:33;2.10;;;1.90;;
9409;SDS011;4744;52.576;13.568;2023-05-10T09:29:01;2.75;;;2.00;;
9409;SDS011;4744;52.576;13.568;2023-05-10T09:31:46;2.42;;;2.03;;
9409;SDS011;4744;52.576;13.568;2023-05-10T09:34:16;3.33;;;2.40;;
9409;SDS011;4744;52.576;13.568;2023-05-10T09:36:53;2.42;;;2.22;;
9409;SDS011;4744;52.576;13.568;2023-05-10T09:39:29;2.72;;;2.53;;
9409;SDS011;4744;52.576;13.568;2023-05-10T09:41:59;3.05;;;2.42;;
9409;SDS011;4744;52.576;13.568;2023-05-10T09:44:28;3.22;;;2.50;;
9409;SDS011;4744;52.576;13.568;2023-05-10T09:46:56;3.88;;;2.10;;
9409;SDS011;4744;52.576;13.568;2023-05-10T09:49:23;2.03;;;1.92;;
9409;SDS011;4744;52.576;13.568;2023-05-10T09:51:59;3.28;;;2.08;;
9409;SDS011;4744;52.576;13.568;2023-05-10T09:54:27;2.00;;;1.90;;
9409;SDS011;4744;52.576;13.568;2023-05-10T09:56:54;2.90;;;2.15;;
9409;SDS011;4744;52.576;13.568;2023-05-10T09:59:24;3.35;;;2.20;;
9409;SDS011;4744;52.576;13.568;2023-05-10T10:01:52;2.75;;;2.30;;
9409;SDS011;4744;52.576;13.568;2023-05-10T10:04:19;6.32;;;2.40;;
9409;SDS011;4744;52.576;13.568;2023-05-10T10:06:47;2.10;;;1.98;;
9409;SDS011;4744;52.576;13.568;2023-05-10T10:09:25;2.30;;;2.20;;
9409;SDS011;4744;52.576;13.568;2023-05-10T10:11:53;2.08;;;1.98;;
9409;SDS011;4744;52.576;13.568;2023-05-10T10:14:22;2.30;;;2.10;;
9409;SDS011;4744;52.576;13.568;2023-05-10T10:16:52;2.53;;;2.03;;
9409;SDS011;4744;52.576;13.568;2023-05-10T10:19:20;3.40;;;2.22;;
9409;SDS011;4744;52.576;13.568;2023-05-10T10:21:48;2.15;;;1.95;;
9409;SDS011;4744;52.576;13.568;2023-05-10T10:24:15;2.13;;;2.00;;
9409;SDS011;4744;52.576;13.568;2023-05-10T10:26:42;3.05;;;2.20;;
9409;SDS011;4744;52.576;13.568;2023-05-10T10:29:17;2.38;;;2.03;;
9409;SDS011;4744;52.576;13.568;2023-05-10T10:31:53;3.25;;;2.00;;
9409;SDS011;4744;52.576;13.568;2023-05-10T10:34:28;2.35;;;1.88;;
9409;SDS011;4744;52.576;13.568;2023-05-10T10:36:57;3.83;;;2.38;;
9409;SDS011;4744;52.576;13.568;2023-05-10T10:39:29;2.40;;;2.20;;
9409;SDS011;4744;52.576;13.568;2023-05-10T10:41:57;3.83;;;2.10;;
9409;SDS011;4744;52.576;13.568;2023-05-10T10:44:32;3.83;;;2.42;;
9409;SDS011;4744;52.576;13.568;2023-05-10T10:47:02;5.07;;;1.90;;
9409;SDS011;4744;52.576;13.568;2023-05-10T10:49:34;2.42;;;2.17;;
9409;SDS011;4744;52.576;13.568;2023-05-10T10:52:14;3.13;;;2.10;;
9409;SDS011;4744;52.576;13.568;2023-05-10T10:54:52;3.63;;;2.20;;
9409;SDS011;4744;52.576;13.568;2023-05-10T10:57:20;2.30;;;2.10;;
9409;SDS011;4744;52.576;13.568;2023-05-10T10:59:49;3.58;;;2.00;;
9409;SDS011;4744;52.576;13.568;2023-05-10T11:02:34;2.40;;;2.20;;
9409;SDS011;4744;52.576;13.568;2023-05-10T11:08:09;2.55;;;2.35;;
9409;SDS011;4744;52.576;13.568;2023-05-10T11:10:38;2.38;;;2.20;;
9409;SDS011;4744;52.576;13.568;2023-05-10T11:13:06;3.28;;;2.10;;
9409;SDS011;4744;52.576;13.568;2023-05-10T11:15:35;3.53;;;2.13;;
9409;SDS011;4744;52.576;13.568;2023-05-10T11:18:16;3.78;;;2.00;;
9409;SDS011;4744;52.576;13.568;2023-05-10T11:20:44;2.63;;;2.00;;
9409;SDS011;4744;52.576;13.568;2023-05-10T11:23:15;2.47;;;2.00;;
9409;SDS011;4744;52.576;13.568;2023-05-10T11:25:43;4.10;;;2.15;;
9409;SDS011;4744;52.576;13.568;2023-05-10T11:28:10;2.28;;;2.08;;
9409;SDS011;4744;52.576;13.568;2023-05-10T11:30:39;3.42;;;2.28;;
9409;SDS011;4744;52.576;13.568;2023-05-10T11:33:08;2.30;;;2.10;;
9409;SDS011;4744;52.576;13.568;2023-05-10T11:35:38;2.92;;;2.47;;
9409;SDS011;4744;52.576;13.568;2023-05-10T11:38:06;3.80;;;2.42;;
9409;SDS011;4744;52.576;13.568;2023-05-10T11:40:33;2.28;;;2.00;;
9409;SDS011;4744;52.576;13.568;2023-05-10T11:43:01;2.78;;;2.10;;
9409;SDS011;4744;52.576;13.568;2023-05-10T11:45:29;7.45;;;2.50;;
9409;SDS011;4744;52.576;13.568;2023-05-10T11:47:59;3.33;;;2.22;;
9409;SDS011;4744;52.576;13.568;2023-05-10T11:50:27;2.17;;;1.98;;
9409;SDS011;4744;52.576;13.568;2023-05-10T11:52:54;1.90;;;1.80;;
9409;SDS011;4744;52.576;13.568;2023-05-10T11:55:22;5.20;;;2.28;;
9409;SDS011;4744;52.576;13.568;2023-05-10T11:57:51;2.78;;;2.20;;
9409;SDS011;4744;52.576;13.568;2023-05-10T12:00:18;2.33;;;2.10;;
9409;SDS011;4744;52.576;13.568;2023-05-10T12:02:46;2.30;;;2.13;;
9409;SDS011;4744;52.576;13.568;2023-05-10T12:05:14;4.68;;;2.20;;
9409;SDS011;4744;52.576;13.568;2023-05-10T12:07:42;2.63;;;2.10;;
9409;SDS011;4744;52.576;13.568;2023-05-10T12:10:09;3.33;;;2.05;;
9409;SDS011;4744;52.576;13.568;2023-05-10T12:12:39;3.47;;;2.30;;
9409;SDS011;4744;52.576;13.568;2023-05-10T12:15:11;5.55;;;1.92;;
9409;SDS011;4744;52.576;13.568;2023-05-10T12:17:43;3.05;;;1.95;;
9409;SDS011;4744;52.576;13.568;2023-05-10T12:20:15;2.35;;;2.15;;
9409;SDS011;4744;52.576;13.568;2023-05-10T12:22:46;6.13;;;2.30;;
9409;SDS011;4744;52.576;13.568;2023-05-10T12:25:15;2.15;;;1.85;;
9409;SDS011;4744;52.576;13.568;2023-05-10T12:27:47;2.30;;;1.85;;
9409;SDS011;4744;52.576;13.568;2023-05-10T12:30:18;5.47;;;2.20;;
9409;SDS011;4744;52.576;13.568;2023-05-10T12:32:46;4.68;;;2.20;;
9409;SDS011;4744;52.576;13.568;2023-05-10T12:35:15;4.93;;;2.20;;
9409;SDS011;4744;52.576;13.568;2023-05-10T12:37:45;2.80;;;1.70;;
9409;SDS011;4744;52.576;13.568;2023-05-10T12:40:12;5.72;;;1.95;;
9409;SDS011;4744;52.576;13.568;2023-05-10T12:42:40;2.15;;;1.80;;
9409;SDS011;4744;52.576;13.568;2023-05-10T12:45:07;2.83;;;1.92;;
9409;SDS011;4744;52.576;13.568;2023-05-10T12:47:34;2.92;;;2.10;;
9409;SDS011;4744;52.576;13.568;2023-05-10T12:50:02;7.40;;;2.10;;
9409;SDS011;4744;52.576;13.568;2023-05-10T12:52:31;4.28;;;1.88;;
9409;SDS011;4744;52.576;13.568;2023-05-10T12:54:58;2.22;;;2.03;;
9409;SDS011;4744;52.576;13.568;2023-05-10T12:57:26;3.38;;;1.90;;
9409;SDS011;4744;52.576;13.568;2023-05-10T12:59:53;1.90;;;1.80;;
9409;SDS011;4744;52.576;13.568;2023-05-10T13:02:20;5.93;;;1.90;;
9409;SDS011;4744;52.576;13.568;2023-05-10T13:04:48;4.00;;;2.00;;
9409;SDS011;4744;52.576;13.568;2023-05-10T13:07:16;4.00;;;2.13;;
9409;SDS011;4744;52.576;13.568;2023-05-10T13:09:44;3.10;;;2.17;;
9409;SDS011;4744;52.576;13.568;2023-05-10T13:12:11;3.28;;;2.10;;
9409;SDS011;4744;52.576;13.568;2023-05-10T13:14:38;1.92;;;1.83;;
9409;SDS011;4744;52.576;13.568;2023-05-10T13:17:06;2.15;;;1.75;;
9409;SDS011;4744;52.576;13.568;2023-05-10T13:19:33;2.42;;;1.77;;
9409;SDS011;4744;52.576;13.568;2023-05-10T13:22:00;1.80;;;1.70;;
9409;SDS011;4744;52.576;13.568;2023-05-10T13:24:27;3.28;;;1.80;;
9409;SDS011;4744;52.576;13.568;2023-05-10T13:26:55;2.88;;;1.80;;
9409;SDS011;4744;52.576;13.568;2023-05-10T13:29:22;3.97;;;1.90;;
9409;SDS011;4744;52.576;13.568;2023-05-10T13:31:49;4.07;;;1.85;;
9409;SDS011;4744;52.576;13.568;2023-05-10T13:34:16;3.72;;;1.90;;
9409;SDS011;4744;52.576;13.568;2023-05-10T13:36:45;2.85;;;1.80;;
9409;SDS011;4744;52.576;13.568;2023-05-10T13:39:12;2.80;;;1.77;;
9409;SDS011;4744;52.576;13.568;2023-05-10T13:41:39;2.80;;;1.52;;
9409;SDS011;4744;52.576;13.568;2023-05-10T13:44:08;3.63;;;1.80;;
9409;SDS011;4744;52.576;13.568;2023-05-10T13:46:35;1.90;;;1.80;;
9409;SDS011;4744;52.576;13.568;2023-05-10T13:49:03;4.05;;;1.58;;
9409;SDS011;4744;52.576;13.568;2023-05-10T13:51:30;2.60;;;1.70;;
9409;SDS011;4744;52.576;13.568;2023-05-10T13:53:57;3.17;;;1.73;;
9409;SDS011;4744;52.576;13.568;2023-05-10T13:56:24;1.60;;;1.50;;
9409;SDS011;4744;52.576;13.568;2023-05-10T13:58:51;1.65;;;1.55;;
9409;SDS011;4744;52.576;13.568;2023-05-10T14:01:20;2.13;;;1.50;;
9409;SDS011;4744;52.576;13.568;2023-05-10T14:03:46;4.00;;;1.73;;
9409;SDS011;4744;52.576;13.568;2023-05-10T14:06:13;2.22;;;1.45;;
9409;SDS011;4744;52.576;13.568;2023-05-10T14:08:40;1.70;;;1.60;;
9409;SDS011;4744;52.576;13.568;2023-05-10T14:11:07;2.28;;;1.67;;
9409;SDS011;4744;52.576;13.568;2023-05-10T14:13:34;1.70;;;1.60;;
9409;SDS011;4744;52.576;13.568;2023-05-10T14:16:01;2.05;;;1.85;;
9409;SDS011;4744;52.576;13.568;2023-05-10T14:18:29;3.10;;;1.67;;
9409;SDS011;4744;52.576;13.568;2023-05-10T14:20:56;3.42;;;1.80;;
9409;SDS011;4744;52.576;13.568;2023-05-10T14:23:23;3.17;;;1.65;;
9409;SDS011;4744;52.576;13.568;2023-05-10T14:25:51;2.63;;;1.52;;
9409;SDS011;4744;52.576;13.568;2023-05-10T14:28:18;1.48;;;1.48;;
9409;SDS011;4744;52.576;13.568;2023-05-10T14:30:45;2.00;;;1.80;;
9409;SDS011;4744;52.576;13.568;2023-05-10T14:33:12;1.42;;;1.40;;
9409;SDS011;4744;52.576;13.568;2023-05-10T14:35:41;3.28;;;2.00;;
9409;SDS011;4744;52.576;13.568;2023-05-10T14:38:08;2.90;;;1.67;;
9409;SDS011;4744;52.576;13.568;2023-05-10T14:40:35;2.53;;;1.60;;
9409;SDS011;4744;52.576;13.568;2023-05-10T14:43:02;3.15;;;1.80;;
9409;SDS011;4744;52.576;13.568;2023-05-10T14:45:29;2.20;;;1.55;;
9409;SDS011;4744;52.576;13.568;2023-05-10T14:47:56;4.40;;;1.67;;
9409;SDS011;4744;52.576;13.568;2023-05-10T14:50:24;1.98;;;1.58;;
9409;SDS011;4744;52.576;13.568;2023-05-10T14:52:52;1.90;;;1.80;;
9409;SDS011;4744;52.576;13.568;2023-05-10T14:55:19;2.10;;;1.40;;
9409;SDS011;4744;52.576;13.568;2023-05-10T14:57:46;5.20;;;1.52;;
9409;SDS011;4744;52.576;13.568;2023-05-10T15:00:14;2.85;;;1.67;;
9409;SDS011;4744;52.576;13.568;2023-05-10T15:02:44;2.25;;;1.80;;
9409;SDS011;4744;52.576;13.568;2023-05-10T15:05:11;2.85;;;1.85;;
9409;SDS011;4744;52.576;13.568;2023-05-10T15:07:38;2.75;;;1.88;;
9409;SDS011;4744;52.576;13.568;2023-05-10T15:10:07;1.95;;;1.70;;
9409;SDS011;4744;52.576;13.568;2023-05-10T15:12:34;2.92;;;1.45;;
9409;SDS011;4744;52.576;13.568;2023-05-10T15:15:01;2.13;;;1.90;;